sensor_id;sensor_type;location;lat;lon;timestamp;pressure;altitude;pressure_sealevel;temperature;humidity
20019;BME280;10170;42.502;26.526;2023-02-13T00:00:19;101775.31;;;0.85;100.00
20019;BME280;10170;42.502;26.526;2023-02-13T00:02:46;101778.97;;;0.97;100.00
20019;BME280;10170;42.502;26.526;2023-02-13T00:05:13;101778.28;;;0.79;100.00
20019;BME280;10170;42.502;26.526;2023-02-13T00:07:40;101776.84;;;0.89;100.00
20019;BME280;10170;42.502;26.526;2023-02-13T00:10:07;101774.81;;;0.79;100.00
20019;BME280;10170;42.502;26.526;2023-02-13T00:12:34;101785.50;;;0.90;100.00
20019;BME280;10170;42.502;26.526;2023-02-13T00:15:01;101780.28;;;0.90;100.00
20019;BME280;10170;42.502;26.526;2023-02-13T00:17:28;101779.97;;;0.66;100.00
20019;BME280;10170;42.502;26.526;2023-02-13T00:19:55;101778.06;;;0.54;100.00
20019;BME280;10170;42.502;26.526;2023-02-13T00:22:22;101779.16;;;0.50;100.00
20019;BME280;10170;42.502;26.526;2023-02-13T00:24:49;101784.97;;;0.41;100.00
20019;BME280;10170;42.502;26.526;2023-02-13T00:27:16;101796.34;;;0.40;100.00
20019;BME280;10170;42.502;26.526;2023-02-13T00:29:43;101771.13;;;0.24;100.00
20019;BME280;10170;42.502;26.526;2023-02-13T00:32:10;101771.59;;;0.16;100.00
20019;BME280;10170;42.502;26.526;2023-02-13T00:34:37;101787.25;;;0.32;100.00
20019;BME280;10170;42.502;26.526;2023-02-13T00:37:04;101787.47;;;0.43;100.00
20019;BME280;10170;42.502;26.526;2023-02-13T00:39:31;101791.53;;;0.48;100.00
20019;BME280;10170;42.502;26.526;2023-02-13T00:41:57;101790.69;;;0.62;100.00
20019;BME280;10170;42.502;26.526;2023-02-13T00:44:24;101797.72;;;0.75;100.00
20019;BME280;10170;42.502;26.526;2023-02-13T00:46:51;101803.38;;;0.83;100.00
20019;BME280;10170;42.502;26.526;2023-02-13T00:49:17;101789.16;;;0.87;100.00
20019;BME280;10170;42.502;26.526;2023-02-13T00:51:44;101801.06;;;0.93;100.00
20019;BME280;10170;42.502;26.526;2023-02-13T00:54:11;101805.47;;;1.06;100.00
20019;BME280;10170;42.502;26.526;2023-02-13T00:56:37;101794.78;;;1.09;100.00
20019;BME280;10170;42.502;26.526;2023-02-13T00:59:04;101793.97;;;1.09;100.00
20019;BME280;10170;42.502;26.526;2023-02-13T01:01:31;101773.91;;;0.80;100.00
20019;BME280;10170;42.502;26.526;2023-02-13T01:03:58;101786.91;;;0.81;100.00
20019;BME280;10170;42.502;26.526;2023-02-13T01:06:25;101796.06;;;0.74;100.00
20019;BME280;10170;42.502;26.526;2023-02-13T01:08:51;101791.00;;;0.71;100.00
20019;BME280;10170;42.502;26.526;2023-02-13T01:11:18;101795.41;;;0.71;100.00
20019;BME280;10170;42.502;26.526;2023-02-13T01:13:45;101796.59;;;0.65;100.00
20019;BME280;10170;42.502;26.526;2023-02-13T01:16:11;101779.53;;;0.44;100.00
20019;BME280;10170;42.502;26.526;2023-02-13T01:18:41;101800.09;;;0.50;100.00
20019;BME280;10170;42.502;26.526;2023-02-13T01:21:15;101801.91;;;0.50;100.00
20019;BME280;10170;42.502;26.526;2023-02-13T01:24:09;101801.56;;;0.40;100.00
20019;BME280;10170;42.502;26.526;2023-02-13T01:26:36;101799.59;;;0.14;100.00
20019;BME280;10170;42.502;26.526;2023-02-13T01:29:02;101803.16;;;-0.03;100.00
20019;BME280;10170;42.502;26.526;2023-02-13T01:31:29;101797.59;;;-0.12;100.00
20019;BME280;10170;42.502;26.526;2023-02-13T01:33:57;101804.50;;;-0.27;100.00
20019;BME280;10170;42.502;26.526;2023-02-13T01:36:25;101803.50;;;-0.24;100.00
20019;BME280;10170;42.502;26.526;2023-02-13T01:38:54;101794.72;;;-0.39;100.00
20019;BME280;10170;42.502;26.526;2023-02-13T01:41:22;101802.75;;;-0.42;100.00
20019;BME280;10170;42.502;26.526;2023-02-13T01:43:53;101803.34;;;-0.37;100.00
20019;BME280;10170;42.502;26.526;2023-02-13T01:48:55;101800.72;;;-0.37;100.00
20019;BME280;10170;42.502;26.526;2023-02-13T01:51:27;101814.38;;;-0.32;100.00
20019;BME280;10170;42.502;26.526;2023-02-13T01:54:03;101793.56;;;-0.49;100.00
20019;BME280;10170;42.502;26.526;2023-02-13T01:56:35;101804.00;;;-0.49;100.00
20019;BME280;10170;42.502;26.526;2023-02-13T01:59:09;101808.88;;;-0.43;100.00
20019;BME280;10170;42.502;26.526;2023-02-13T02:01:37;101798.50;;;-0.44;100.00
20019;BME280;10170;42.502;26.526;2023-02-13T02:04:07;101806.22;;;-0.26;100.00
20019;BME280;10170;42.502;26.526;2023-02-13T02:06:45;101814.97;;;-0.27;100.00
20019;BME280;10170;42.502;26.526;2023-02-13T02:09:18;101804.34;;;-0.24;100.00
20019;BME280;10170;42.502;26.526;2023-02-13T02:11:58;101814.13;;;0.04;100.00
20019;BME280;10170;42.502;26.526;2023-02-13T02:14:26;101817.66;;;0.19;100.00
20019;BME280;10170;42.502;26.526;2023-02-13T02:16:54;101801.88;;;0.05;100.00
20019;BME280;10170;42.502;26.526;2023-02-13T02:22:15;101818.97;;;0.26;100.00
20019;BME280;10170;42.502;26.526;2023-02-13T02:30:38;101823.00;;;0.02;100.00
20019;BME280;10170;42.502;26.526;2023-02-13T02:33:34;101824.25;;;-0.21;100.00
20019;BME280;10170;42.502;26.526;2023-02-13T02:44:40;101830.63;;;-0.58;100.00
20019;BME280;10170;42.502;26.526;2023-02-13T02:47:19;101828.78;;;-0.56;100.00
20019;BME280;10170;42.502;26.526;2023-02-13T02:53:37;101836.03;;;-0.14;100.00
20019;BME280;10170;42.502;26.526;2023-02-13T02:59:04;101831.59;;;0.04;100.00
20019;BME280;10170;42.502;26.526;2023-02-13T03:01:52;101839.78;;;-0.03;100.00
20019;BME280;10170;42.502;26.526;2023-02-13T03:04:41;101846.75;;;-0.19;100.00
20019;BME280;10170;42.502;26.526;2023-02-13T03:07:28;101840.84;;;-0.38;100.00
20019;BME280;10170;42.502;26.526;2023-02-13T03:10:02;101846.41;;;-0.28;100.00
20019;BME280;10170;42.502;26.526;2023-02-13T03:12:58;101841.53;;;-0.34;100.00
20019;BME280;10170;42.502;26.526;2023-02-13T03:16:02;101838.41;;;-0.10;100.00
20019;BME280;10170;42.502;26.526;2023-02-13T03:18:54;101843.38;;;-0.21;100.00
20019;BME280;10170;42.502;26.526;2023-02-13T03:22:21;101828.59;;;-0.53;100.00
20019;BME280;10170;42.502;26.526;2023-02-13T03:27:58;101834.28;;;-0.94;100.00
20019;BME280;10170;42.502;26.526;2023-02-13T03:30:59;101832.69;;;-0.97;100.00
20019;BME280;10170;42.502;26.526;2023-02-13T03:33:38;101830.53;;;-0.89;100.00
20019;BME280;10170;42.502;26.526;2023-02-13T03:39:29;101821.81;;;-0.72;100.00
20019;BME280;10170;42.502;26.526;2023-02-13T03:42:01;101824.13;;;-0.51;100.00
20019;BME280;10170;42.502;26.526;2023-02-13T03:44:47;101833.81;;;-0.53;100.00
20019;BME280;10170;42.502;26.526;2023-02-13T03:47:37;101819.22;;;-0.57;100.00
20019;BME280;10170;42.502;26.526;2023-02-13T03:50:05;101831.63;;;-0.45;100.00
20019;BME280;10170;42.502;26.526;2023-02-13T03:53:15;101833.69;;;-0.19;100.00
20019;BME280;10170;42.502;26.526;2023-02-13T03:55:44;101832.47;;;-0.44;100.00
20019;BME280;10170;42.502;26.526;2023-02-13T03:58:35;101836.59;;;-0.56;100.00
20019;BME280;10170;42.502;26.526;2023-02-13T04:01:26;101839.22;;;-0.88;100.00
20019;BME280;10170;42.502;26.526;2023-02-13T04:07:00;101839.06;;;-0.70;100.00
20019;BME280;10170;42.502;26.526;2023-02-13T04:09:29;101840.94;;;-0.72;100.00
20019;BME280;10170;42.502;26.526;2023-02-13T04:12:00;101839.53;;;-0.62;100.00
20019;BME280;10170;42.502;26.526;2023-02-13T04:17:54;101821.56;;;-0.68;100.00
20019;BME280;10170;42.502;26.526;2023-02-13T04:20:26;101830.25;;;-0.67;100.00
20019;BME280;10170;42.502;26.526;2023-02-13T04:22:53;101831.88;;;-0.49;100.00
20019;BME280;10170;42.502;26.526;2023-02-13T04:25:20;101831.50;;;-0.42;100.00
20019;BME280;10170;42.502;26.526;2023-02-13T04:27:46;101846.91;;;-0.37;100.00
20019;BME280;10170;42.502;26.526;2023-02-13T04:30:13;101844.09;;;-0.50;100.00
20019;BME280;10170;42.502;26.526;2023-02-13T04:32:40;101848.94;;;-0.75;100.00
20019;BME280;10170;42.502;26.526;2023-02-13T04:35:07;101851.25;;;-0.86;100.00
20019;BME280;10170;42.502;26.526;2023-02-13T04:37:34;101845.28;;;-0.88;100.00
20019;BME280;10170;42.502;26.526;2023-02-13T04:40:01;101855.72;;;-1.05;100.00
20019;BME280;10170;42.502;26.526;2023-02-13T04:42:28;101851.13;;;-1.17;100.00
20019;BME280;10170;42.502;26.526;2023-02-13T04:44:54;101838.84;;;-1.32;100.00
20019;BME280;10170;42.502;26.526;2023-02-13T04:47:21;101852.56;;;-1.29;100.00
20019;BME280;10170;42.502;26.526;2023-02-13T04:49:48;101850.34;;;-1.36;100.00
20019;BME280;10170;42.502;26.526;2023-02-13T04:52:22;101851.44;;;-1.40;100.00
20019;BME280;10170;42.502;26.526;2023-02-13T04:54:49;101846.50;;;-1.63;100.00
20019;BME280;10170;42.502;26.526;2023-02-13T04:57:16;101848.72;;;-1.73;100.00
20019;BME280;10170;42.502;26.526;2023-02-13T04:59:42;101847.72;;;-1.70;100.00
20019;BME280;10170;42.502;26.526;2023-02-13T05:02:09;101845.88;;;-1.68;100.00
20019;BME280;10170;42.502;26.526;2023-02-13T05:04:36;101847.66;;;-1.69;100.00
20019;BME280;10170;42.502;26.526;2023-02-13T05:07:03;101859.72;;;-1.49;100.00
20019;BME280;10170;42.502;26.526;2023-02-13T05:09:29;101855.88;;;-1.42;100.00
20019;BME280;10170;42.502;26.526;2023-02-13T05:11:56;101858.84;;;-1.67;100.00
20019;BME280;10170;42.502;26.526;2023-02-13T05:14:29;101863.84;;;-1.45;100.00
20019;BME280;10170;42.502;26.526;2023-02-13T05:16:56;101861.47;;;-1.33;100.00
20019;BME280;10170;42.502;26.526;2023-02-13T05:19:22;101860.97;;;-1.22;100.00
20019;BME280;10170;42.502;26.526;2023-02-13T05:21:49;101842.53;;;-1.19;100.00
20019;BME280;10170;42.502;26.526;2023-02-13T05:24:35;101845.47;;;-1.08;100.00
20019;BME280;10170;42.502;26.526;2023-02-13T05:27:01;101866.78;;;-0.83;100.00
20019;BME280;10170;42.502;26.526;2023-02-13T05:29:28;101863.09;;;-0.79;100.00
20019;BME280;10170;42.502;26.526;2023-02-13T05:31:56;101860.25;;;-0.91;100.00
20019;BME280;10170;42.502;26.526;2023-02-13T05:34:25;101858.34;;;-0.88;100.00
20019;BME280;10170;42.502;26.526;2023-02-13T05:36:53;101871.69;;;-0.94;100.00
20019;BME280;10170;42.502;26.526;2023-02-13T05:39:20;101875.38;;;-1.32;100.00
20019;BME280;10170;42.502;26.526;2023-02-13T05:41:48;101885.47;;;-1.60;100.00
20019;BME280;10170;42.502;26.526;2023-02-13T05:44:15;101886.19;;;-1.40;100.00
20019;BME280;10170;42.502;26.526;2023-02-13T05:46:43;101893.38;;;-1.62;100.00
20019;BME280;10170;42.502;26.526;2023-02-13T05:49:11;101895.28;;;-1.65;100.00
20019;BME280;10170;42.502;26.526;2023-02-13T05:51:38;101889.63;;;-1.56;100.00
20019;BME280;10170;42.502;26.526;2023-02-13T05:54:05;101890.00;;;-1.47;100.00
20019;BME280;10170;42.502;26.526;2023-02-13T05:56:32;101884.09;;;-1.50;100.00
20019;BME280;10170;42.502;26.526;2023-02-13T05:58:59;101881.31;;;-1.64;100.00
20019;BME280;10170;42.502;26.526;2023-02-13T06:01:25;101876.25;;;-1.67;100.00
20019;BME280;10170;42.502;26.526;2023-02-13T06:03:52;101886.94;;;-1.55;100.00
20019;BME280;10170;42.502;26.526;2023-02-13T06:06:19;101886.81;;;-1.35;100.00
20019;BME280;10170;42.502;26.526;2023-02-13T06:08:47;101878.44;;;-1.41;100.00
20019;BME280;10170;42.502;26.526;2023-02-13T06:11:13;101895.72;;;-1.39;100.00
20019;BME280;10170;42.502;26.526;2023-02-13T06:13:40;101898.75;;;-1.48;100.00
20019;BME280;10170;42.502;26.526;2023-02-13T06:16:07;101892.25;;;-1.39;100.00
20019;BME280;10170;42.502;26.526;2023-02-13T06:18:34;101903.94;;;-1.29;100.00
20019;BME280;10170;42.502;26.526;2023-02-13T06:21:02;101921.81;;;-1.22;100.00
20019;BME280;10170;42.502;26.526;2023-02-13T06:23:30;101920.59;;;-1.32;100.00
20019;BME280;10170;42.502;26.526;2023-02-13T06:26:04;101908.63;;;-1.19;100.00
20019;BME280;10170;42.502;26.526;2023-02-13T06:28:31;101912.75;;;-0.63;100.00
20019;BME280;10170;42.502;26.526;2023-02-13T06:30:58;101884.59;;;-0.91;100.00
20019;BME280;10170;42.502;26.526;2023-02-13T06:33:26;101913.41;;;-0.43;100.00
20019;BME280;10170;42.502;26.526;2023-02-13T06:35:53;101902.53;;;-0.03;100.00
20019;BME280;10170;42.502;26.526;2023-02-13T06:38:47;101920.59;;;0.33;100.00
20019;BME280;10170;42.502;26.526;2023-02-13T06:41:13;101928.38;;;0.80;100.00
20019;BME280;10170;42.502;26.526;2023-02-13T06:43:40;101916.28;;;1.51;100.00
20019;BME280;10170;42.502;26.526;2023-02-13T06:46:07;101924.91;;;2.76;100.00
20019;BME280;10170;42.502;26.526;2023-02-13T06:48:35;101925.50;;;4.79;100.00
20019;BME280;10170;42.502;26.526;2023-02-13T06:51:02;101923.53;;;4.10;100.00
20019;BME280;10170;42.502;26.526;2023-02-13T06:53:29;101937.66;;;3.47;100.00
20019;BME280;10170;42.502;26.526;2023-02-13T06:55:56;101935.25;;;3.69;100.00
20019;BME280;10170;42.502;26.526;2023-02-13T06:58:24;101922.16;;;4.17;100.00
20019;BME280;10170;42.502;26.526;2023-02-13T07:00:51;101932.09;;;3.89;100.00
20019;BME280;10170;42.502;26.526;2023-02-13T07:03:18;101924.00;;;4.64;100.00
20019;BME280;10170;42.502;26.526;2023-02-13T07:05:45;101928.88;;;4.81;100.00
20019;BME280;10170;42.502;26.526;2023-02-13T07:08:12;101917.47;;;4.34;100.00
20019;BME280;10170;42.502;26.526;2023-02-13T07:10:40;101933.31;;;4.45;100.00
20019;BME280;10170;42.502;26.526;2023-02-13T07:13:08;101940.31;;;4.93;100.00
20019;BME280;10170;42.502;26.526;2023-02-13T07:15:36;101935.78;;;5.06;99.06
20019;BME280;10170;42.502;26.526;2023-02-13T07:18:04;101925.50;;;4.56;100.00
20019;BME280;10170;42.502;26.526;2023-02-13T07:20:31;101928.38;;;5.11;100.00
20019;BME280;10170;42.502;26.526;2023-02-13T07:23:03;101928.88;;;6.39;89.05
20019;BME280;10170;42.502;26.526;2023-02-13T07:25:30;101923.09;;;5.11;92.59
20019;BME280;10170;42.502;26.526;2023-02-13T07:28:05;101925.38;;;5.61;93.57
20019;BME280;10170;42.502;26.526;2023-02-13T07:30:32;101924.25;;;5.87;89.22
20019;BME280;10170;42.502;26.526;2023-02-13T07:33:01;101924.19;;;6.31;83.01
20019;BME280;10170;42.502;26.526;2023-02-13T07:35:28;101917.00;;;6.22;83.59
20019;BME280;10170;42.502;26.526;2023-02-13T07:37:55;101914.75;;;6.07;81.53
20019;BME280;10170;42.502;26.526;2023-02-13T07:40:22;101916.34;;;5.42;90.07
20019;BME280;10170;42.502;26.526;2023-02-13T07:42:49;101918.06;;;5.08;98.40
20019;BME280;10170;42.502;26.526;2023-02-13T07:45:15;101913.56;;;6.11;83.21
20019;BME280;10170;42.502;26.526;2023-02-13T07:47:42;101903.09;;;5.76;78.52
20019;BME280;10170;42.502;26.526;2023-02-13T07:50:09;101903.53;;;5.37;79.48
20019;BME280;10170;42.502;26.526;2023-02-13T07:52:36;101893.72;;;5.72;78.77
20019;BME280;10170;42.502;26.526;2023-02-13T07:55:04;101909.63;;;6.59;78.43
20019;BME280;10170;42.502;26.526;2023-02-13T07:57:32;101907.47;;;6.85;73.54
20019;BME280;10170;42.502;26.526;2023-02-13T07:59:59;101877.41;;;5.78;75.37
20019;BME280;10170;42.502;26.526;2023-02-13T08:02:25;101899.84;;;6.71;74.44
20019;BME280;10170;42.502;26.526;2023-02-13T08:04:52;101889.69;;;7.28;72.55
20019;BME280;10170;42.502;26.526;2023-02-13T08:07:19;101895.91;;;6.97;71.28
20019;BME280;10170;42.502;26.526;2023-02-13T08:09:46;101896.63;;;6.56;77.70
20019;BME280;10170;42.502;26.526;2023-02-13T08:12:34;101896.81;;;6.75;76.37
20019;BME280;10170;42.502;26.526;2023-02-13T08:15:01;101887.81;;;8.00;71.06
20019;BME280;10170;42.502;26.526;2023-02-13T08:17:28;101886.78;;;8.12;67.84
20019;BME280;10170;42.502;26.526;2023-02-13T08:19:55;101887.94;;;8.28;65.46
20019;BME280;10170;42.502;26.526;2023-02-13T08:22:21;101894.25;;;8.37;64.61
20019;BME280;10170;42.502;26.526;2023-02-13T08:24:48;101893.41;;;7.67;66.25
20019;BME280;10170;42.502;26.526;2023-02-13T08:27:15;101886.91;;;7.80;65.32
20019;BME280;10170;42.502;26.526;2023-02-13T08:29:42;101858.00;;;8.66;64.15
20019;BME280;10170;42.502;26.526;2023-02-13T08:32:08;101873.25;;;7.75;62.96
20019;BME280;10170;42.502;26.526;2023-02-13T08:34:35;101881.69;;;7.39;64.89
20019;BME280;10170;42.502;26.526;2023-02-13T08:37:03;101848.78;;;7.62;65.95
20019;BME280;10170;42.502;26.526;2023-02-13T08:39:30;101863.16;;;7.99;64.53
20019;BME280;10170;42.502;26.526;2023-02-13T08:41:57;101862.47;;;8.85;62.33
20019;BME280;10170;42.502;26.526;2023-02-13T08:44:24;101866.94;;;8.46;61.60
20019;BME280;10170;42.502;26.526;2023-02-13T08:46:50;101866.50;;;8.31;62.10
20019;BME280;10170;42.502;26.526;2023-02-13T08:49:17;101865.53;;;8.02;63.43
20019;BME280;10170;42.502;26.526;2023-02-13T08:51:44;101863.34;;;8.17;61.97
20019;BME280;10170;42.502;26.526;2023-02-13T08:54:11;101871.72;;;8.22;61.32
20019;BME280;10170;42.502;26.526;2023-02-13T08:56:37;101867.28;;;7.83;60.86
20019;BME280;10170;42.502;26.526;2023-02-13T08:59:04;101859.97;;;8.05;62.51
20019;BME280;10170;42.502;26.526;2023-02-13T09:01:31;101859.94;;;8.45;61.32
20019;BME280;10170;42.502;26.526;2023-02-13T09:03:58;101859.81;;;8.75;60.42
20019;BME280;10170;42.502;26.526;2023-02-13T09:06:25;101854.09;;;8.80;60.16
20019;BME280;10170;42.502;26.526;2023-02-13T09:08:52;101855.41;;;8.17;58.97
20019;BME280;10170;42.502;26.526;2023-02-13T09:11:19;101826.03;;;8.87;58.01
20019;BME280;10170;42.502;26.526;2023-02-13T09:13:51;101843.88;;;9.59;57.93
20019;BME280;10170;42.502;26.526;2023-02-13T09:16:19;101845.81;;;9.11;57.83
20019;BME280;10170;42.502;26.526;2023-02-13T09:18:47;101840.03;;;9.35;58.32
20019;BME280;10170;42.502;26.526;2023-02-13T09:21:15;101851.28;;;9.10;57.52
20019;BME280;10170;42.502;26.526;2023-02-13T09:23:42;101846.84;;;8.53;58.05
20019;BME280;10170;42.502;26.526;2023-02-13T09:26:11;101844.88;;;7.87;57.52
20019;BME280;10170;42.502;26.526;2023-02-13T09:28:39;101834.50;;;7.74;58.07
20019;BME280;10170;42.502;26.526;2023-02-13T09:31:11;101837.81;;;6.75;61.02
20019;BME280;10170;42.502;26.526;2023-02-13T09:33:40;101832.47;;;6.86;61.65
20019;BME280;10170;42.502;26.526;2023-02-13T09:36:12;101823.97;;;7.54;61.13
20019;BME280;10170;42.502;26.526;2023-02-13T09:38:41;101819.88;;;7.40;60.92
20019;BME280;10170;42.502;26.526;2023-02-13T09:41:17;101749.31;;;7.60;60.04
20019;BME280;10170;42.502;26.526;2023-02-13T09:46:23;101806.81;;;9.21;55.90
20019;BME280;10170;42.502;26.526;2023-02-13T09:48:54;101802.72;;;8.42;57.04
20019;BME280;10170;42.502;26.526;2023-02-13T09:51:22;101791.66;;;8.18;57.61
20019;BME280;10170;42.502;26.526;2023-02-13T09:53:57;101793.19;;;8.88;56.61
20019;BME280;10170;42.502;26.526;2023-02-13T09:56:46;101784.38;;;8.01;58.69
20019;BME280;10170;42.502;26.526;2023-02-13T09:59:21;101783.84;;;8.84;57.13
20019;BME280;10170;42.502;26.526;2023-02-13T10:01:54;101757.53;;;8.34;57.80
20019;BME280;10170;42.502;26.526;2023-02-13T10:05:16;101770.31;;;8.68;57.63
20019;BME280;10170;42.502;26.526;2023-02-13T10:10:33;101768.84;;;9.75;54.87
20019;BME280;10170;42.502;26.526;2023-02-13T10:13:15;101759.72;;;9.23;55.33
20019;BME280;10170;42.502;26.526;2023-02-13T10:18:27;101756.88;;;9.89;54.74
20019;BME280;10170;42.502;26.526;2023-02-13T10:20:59;101755.50;;;9.85;54.26
20019;BME280;10170;42.502;26.526;2023-02-13T10:23:35;101755.38;;;9.59;54.59
20019;BME280;10170;42.502;26.526;2023-02-13T10:26:27;101749.97;;;9.78;53.97
20019;BME280;10170;42.502;26.526;2023-02-13T10:29:16;101750.97;;;9.50;53.84
20019;BME280;10170;42.502;26.526;2023-02-13T10:32:07;101747.00;;;9.27;54.78
20019;BME280;10170;42.502;26.526;2023-02-13T10:34:40;101722.22;;;9.63;57.15
20019;BME280;10170;42.502;26.526;2023-02-13T10:37:20;101729.66;;;9.59;54.63
20019;BME280;10170;42.502;26.526;2023-02-13T10:39:51;101721.19;;;9.19;54.65
20019;BME280;10170;42.502;26.526;2023-02-13T10:50:42;101720.88;;;9.32;54.43
20019;BME280;10170;42.502;26.526;2023-02-13T10:54:03;101717.41;;;9.22;54.78
20019;BME280;10170;42.502;26.526;2023-02-13T11:01:39;101703.09;;;9.59;54.49
20019;BME280;10170;42.502;26.526;2023-02-13T11:04:16;101701.38;;;8.77;55.19
20019;BME280;10170;42.502;26.526;2023-02-13T11:09:24;101684.13;;;9.27;55.32
20019;BME280;10170;42.502;26.526;2023-02-13T11:11:52;101679.25;;;8.96;57.03
20019;BME280;10170;42.502;26.526;2023-02-13T11:14:21;101671.44;;;9.48;56.64
20019;BME280;10170;42.502;26.526;2023-02-13T11:16:52;101669.59;;;10.11;57.09
20019;BME280;10170;42.502;26.526;2023-02-13T11:22:02;101661.16;;;11.18;53.72
20019;BME280;10170;42.502;26.526;2023-02-13T11:24:30;101660.28;;;11.59;54.14
20019;BME280;10170;42.502;26.526;2023-02-13T11:27:04;101649.91;;;12.06;53.69
20019;BME280;10170;42.502;26.526;2023-02-13T11:29:36;101646.13;;;11.09;53.20
20019;BME280;10170;42.502;26.526;2023-02-13T11:32:16;101643.19;;;10.87;55.45
20019;BME280;10170;42.502;26.526;2023-02-13T11:34:44;101642.63;;;11.50;54.27
20019;BME280;10170;42.502;26.526;2023-02-13T11:39:39;101631.41;;;10.97;54.67
20019;BME280;10170;42.502;26.526;2023-02-13T11:42:40;101626.25;;;10.96;54.75
20019;BME280;10170;42.502;26.526;2023-02-13T11:45:22;101615.25;;;11.40;53.86
20019;BME280;10170;42.502;26.526;2023-02-13T11:47:53;101618.13;;;11.55;54.87
20019;BME280;10170;42.502;26.526;2023-02-13T11:50:34;101620.16;;;11.03;53.85
20019;BME280;10170;42.502;26.526;2023-02-13T11:53:04;101619.84;;;10.47;55.13
20019;BME280;10170;42.502;26.526;2023-02-13T11:55:38;101609.94;;;11.40;53.93
20019;BME280;10170;42.502;26.526;2023-02-13T12:00:41;101606.97;;;10.60;55.45
20019;BME280;10170;42.502;26.526;2023-02-13T12:06:12;101592.94;;;10.84;54.71
20019;BME280;10170;42.502;26.526;2023-02-13T12:08:43;101587.06;;;11.14;54.07
20019;BME280;10170;42.502;26.526;2023-02-13T12:11:44;101581.09;;;10.70;54.95
20019;BME280;10170;42.502;26.526;2023-02-13T12:14:17;101585.63;;;11.27;53.95
20019;BME280;10170;42.502;26.526;2023-02-13T12:17:07;101577.66;;;9.83;55.47
20019;BME280;10170;42.502;26.526;2023-02-13T12:19:40;101577.00;;;10.07;55.79
20019;BME280;10170;42.502;26.526;2023-02-13T12:33:26;101551.16;;;10.76;54.13
20019;BME280;10170;42.502;26.526;2023-02-13T12:36:07;101550.53;;;11.56;54.62
20019;BME280;10170;42.502;26.526;2023-02-13T12:41:16;101550.56;;;11.88;53.50
20019;BME280;10170;42.502;26.526;2023-02-13T12:46:27;101542.91;;;11.77;51.67
20019;BME280;10170;42.502;26.526;2023-02-13T12:54:35;101536.47;;;11.06;53.48
20019;BME280;10170;42.502;26.526;2023-02-13T12:57:23;101536.50;;;10.72;54.15
20019;BME280;10170;42.502;26.526;2023-02-13T13:08:03;101521.03;;;12.22;51.31
20019;BME280;10170;42.502;26.526;2023-02-13T13:18:38;101511.88;;;11.20;53.54
20019;BME280;10170;42.502;26.526;2023-02-13T13:27:35;101513.78;;;10.86;55.46
20019;BME280;10170;42.502;26.526;2023-02-13T13:30:11;101517.66;;;11.15;54.08
20019;BME280;10170;42.502;26.526;2023-02-13T13:32:40;101511.22;;;11.42;53.75
20019;BME280;10170;42.502;26.526;2023-02-13T13:35:14;101509.44;;;10.85;54.87
20019;BME280;10170;42.502;26.526;2023-02-13T13:48:49;101496.59;;;10.30;57.27
20019;BME280;10170;42.502;26.526;2023-02-13T13:51:21;101493.78;;;10.06;57.60
20019;BME280;10170;42.502;26.526;2023-02-13T14:05:16;101472.38;;;10.41;57.36
20019;BME280;10170;42.502;26.526;2023-02-13T14:07:45;101473.50;;;10.31;57.23
20019;BME280;10170;42.502;26.526;2023-02-13T14:31:38;101462.59;;;9.65;59.52
20019;BME280;10170;42.502;26.526;2023-02-13T14:36:45;101464.22;;;9.58;60.06
20019;BME280;10170;42.502;26.526;2023-02-13T14:39:33;101463.84;;;9.53;60.31
20019;BME280;10170;42.502;26.526;2023-02-13T14:42:22;101457.56;;;9.36;60.89
20019;BME280;10170;42.502;26.526;2023-02-13T14:44:54;101455.28;;;9.41;61.05
20019;BME280;10170;42.502;26.526;2023-02-13T14:47:29;101459.91;;;9.57;61.05
20019;BME280;10170;42.502;26.526;2023-02-13T14:49:59;101462.28;;;9.68;60.60
20019;BME280;10170;42.502;26.526;2023-02-13T14:52:38;101450.53;;;9.71;60.46
20019;BME280;10170;42.502;26.526;2023-02-13T14:55:34;101448.75;;;9.79;60.50
20019;BME280;10170;42.502;26.526;2023-02-13T14:58:14;101445.50;;;9.93;60.00
20019;BME280;10170;42.502;26.526;2023-02-13T15:01:17;101440.88;;;9.95;60.05
20019;BME280;10170;42.502;26.526;2023-02-13T15:03:48;101418.84;;;9.77;60.19
20019;BME280;10170;42.502;26.526;2023-02-13T15:06:27;101433.84;;;9.86;60.27
20019;BME280;10170;42.502;26.526;2023-02-13T15:08:59;101439.41;;;9.75;60.51
20019;BME280;10170;42.502;26.526;2023-02-13T15:11:34;101428.88;;;9.83;60.59
20019;BME280;10170;42.502;26.526;2023-02-13T15:16:45;101397.34;;;9.63;60.62
20019;BME280;10170;42.502;26.526;2023-02-13T15:19:18;101429.63;;;10.01;59.73
20019;BME280;10170;42.502;26.526;2023-02-13T15:22:06;101436.31;;;10.05;59.57
20019;BME280;10170;42.502;26.526;2023-02-13T15:24:43;101416.88;;;9.79;59.87
20019;BME280;10170;42.502;26.526;2023-02-13T15:27:59;101429.53;;;9.85;60.22
20019;BME280;10170;42.502;26.526;2023-02-13T15:30:21;101434.28;;;9.74;60.64
20019;BME280;10170;42.502;26.526;2023-02-13T15:33:19;101429.34;;;9.79;60.34
20019;BME280;10170;42.502;26.526;2023-02-13T15:35:54;101430.38;;;9.86;60.28
20019;BME280;10170;42.502;26.526;2023-02-13T15:38:32;101429.59;;;9.68;60.45
20019;BME280;10170;42.502;26.526;2023-02-13T15:41:17;101428.75;;;9.67;60.36
20019;BME280;10170;42.502;26.526;2023-02-13T15:43:48;101437.78;;;9.74;60.64
20019;BME280;10170;42.502;26.526;2023-02-13T15:48:45;101423.91;;;9.37;61.83
20019;BME280;10170;42.502;26.526;2023-02-13T15:51:21;101430.97;;;9.11;62.63
20019;BME280;10170;42.502;26.526;2023-02-13T15:53:53;101432.41;;;8.88;64.07
20019;BME280;10170;42.502;26.526;2023-02-13T15:56:20;101440.75;;;8.93;64.41